Time;durP1;ratioP1;P1;durP2;ratioP2;P2;SDS_P1;SDS_P2;PMS_P1;PMS_P2;Temp;Humidity;BMP_temperature;BMP_pressure;BME280_temperature;BME280_humidity;BME280_pressure;Samples;Min_cycle;Max_cycle;Signal;HPM_P1;HPM_P2
2022/02/11 00:02:02;;;;;;;1.57;1.00;;;5.50;99.90;;;;;;5048956;28;20477;-44
2022/02/11 00:04:58;;;;;;;1.57;1.43;;;5.50;99.90;;;;;;5038646;28;20453;-42
2022/02/11 00:07:25;;;;;;;5.50;1.10;;;5.60;99.90;;;;;;5042622;28;20487;-48
2022/02/11 00:09:52;;;;;;;1.90;1.53;;;5.60;99.90;;;;;;5039641;28;20444;-47
2022/02/11 00:12:19;;;;;;;1.20;1.00;;;5.60;99.90;;;;;;5037366;28;20472;-45
2022/02/11 00:14:53;;;;;;;2.00;1.23;;;5.60;99.90;;;;;;5051669;28;20538;-49
2022/02/11 00:17:20;;;;;;;1.10;0.80;;;5.60;99.90;;;;;;5057762;28;20735;-45
2022/02/11 00:19:48;;;;;;;2.60;1.00;;;5.60;99.90;;;;;;5057702;28;20517;-46
2022/02/11 00:22:14;;;;;;;4.97;1.30;;;5.70;99.90;;;;;;5058112;28;20459;-43
2022/02/11 00:24:41;;;;;;;66.53;25.60;;;5.70;99.90;;;;;;5057417;28;20451;-45
2022/02/11 00:27:44;;;;;;;6.00;2.80;;;5.70;99.90;;;;;;5057543;28;20553;-51
2022/02/11 00:33:03;;;;;;;10.70;1.30;;;5.70;99.90;;;;;;5061329;28;20733;-45
2022/02/11 00:35:37;;;;;;;1.60;1.30;;;5.70;99.90;;;;;;5058503;28;20467;-47
2022/02/11 00:38:10;;;;;;;2.10;1.47;;;5.70;99.90;;;;;;5057748;28;20433;-50
2022/02/11 00:41:06;;;;;;;2.17;1.10;;;5.70;99.90;;;;;;5058567;28;20475;-44
2022/02/11 00:44:25;;;;;;;7.03;1.50;;;5.70;99.90;;;;;;5057682;28;20802;-45
2022/02/11 01:03:14;;;;;;;1.90;1.60;;;5.80;99.90;;;;;;5057035;28;20419;-46
2022/02/11 01:05:41;;;;;;;2.03;1.53;;;5.80;99.90;;;;;;5057019;28;20442;-45
2022/02/11 01:08:09;;;;;;;3.30;1.70;;;5.70;99.90;;;;;;5057016;28;20469;-43
2022/02/11 01:10:35;;;;;;;3.53;2.67;;;5.80;99.90;;;;;;5057025;28;20462;-44
2022/02/11 01:13:02;;;;;;;1.80;1.40;;;5.80;99.90;;;;;;5056871;28;20514;-48
2022/02/11 01:15:31;;;;;;;1.60;1.50;;;5.80;99.90;;;;;;5056572;28;20976;-49
2022/02/11 01:18:01;;;;;;;2.60;1.80;;;5.80;99.90;;;;;;5059887;28;20505;-50
2022/02/11 01:20:41;;;;;;;3.00;2.17;;;5.80;99.90;;;;;;5060690;28;20936;-48
2022/02/11 01:23:18;;;;;;;2.33;2.00;;;5.80;99.90;;;;;;5059082;28;20440;-55
2022/02/11 01:26:00;;;;;;;3.90;2.20;;;5.90;99.90;;;;;;5058872;28;20503;-47
2022/02/11 01:28:39;;;;;;;4.87;1.97;;;5.80;99.90;;;;;;5057267;28;20466;-48
2022/02/11 01:31:16;;;;;;;4.73;1.77;;;5.80;99.90;;;;;;5056606;28;20474;-47
2022/02/11 01:34:01;;;;;;;2.23;1.80;;;5.80;99.90;;;;;;5056578;28;20451;-44
2022/02/11 01:36:44;;;;;;;3.30;1.60;;;5.80;99.90;;;;;;5056448;28;20482;-44
2022/02/11 01:47:59;;;;;;;3.07;2.77;;;5.80;99.90;;;;;;5040834;28;20452;-47
2022/02/11 01:50:43;;;;;;;7.10;2.00;;;5.80;99.90;;;;;;5055892;28;20754;-42
2022/02/11 01:53:19;;;;;;;3.90;2.10;;;5.80;99.90;;;;;;5056052;28;20430;-42
2022/02/11 01:56:04;;;;;;;7.33;2.17;;;5.80;99.90;;;;;;5055788;28;20478;-43
2022/02/11 02:01:47;;;;;;;3.53;2.60;;;5.80;99.90;;;;;;5056272;28;20415;-45
2022/02/11 02:16:08;;;;;;;4.23;2.50;;;5.80;99.90;;;;;;5055487;28;20488;-41
2022/02/11 02:19:21;;;;;;;3.00;2.40;;;5.80;99.90;;;;;;5055934;28;20440;-48
2022/02/11 02:24:51;;;;;;;3.23;2.83;;;5.80;99.90;;;;;;5051928;28;20442;-42
2022/02/11 02:27:37;;;;;;;4.40;2.27;;;5.90;99.90;;;;;;5056107;28;20550;-46
2022/02/11 02:33:36;;;;;;;2.80;2.50;;;5.80;99.90;;;;;;5018306;28;20457;-43
2022/02/11 02:36:24;;;;;;;11.30;3.43;;;5.90;99.90;;;;;;5059178;28;20542;-47
2022/02/11 02:39:20;;;;;;;4.23;2.73;;;5.90;99.90;;;;;;5060031;28;20468;-46
2022/02/11 02:50:21;;;;;;;7.70;2.60;;;5.90;99.90;;;;;;5059381;28;20908;-46
2022/02/11 02:58:26;;;;;;;3.63;2.93;;;6.00;99.90;;;;;;5062821;28;20459;-47
2022/02/11 03:01:13;;;;;;;8.20;3.03;;;5.90;99.90;;;;;;5062249;28;20440;-47
2022/02/11 03:15:22;;;;;;;5.23;3.00;;;5.90;99.90;;;;;;5034920;28;20486;-43
2022/02/11 03:34:51;;;;;;;7.40;3.47;;;6.00;99.90;;;;;;5059210;28;20543;-50
2022/02/11 03:51:26;;;;;;;7.23;2.37;;;6.10;99.90;;;;;;5059421;28;20906;-44
2022/02/11 05:00:03;;;;;;;8.40;4.27;;;5.50;99.90;;;;;;5057686;28;20459;-49
2022/02/11 05:02:34;;;;;;;8.50;4.30;;;5.50;99.90;;;;;;5057964;28;20471;-47
2022/02/11 05:05:04;;;;;;;7.47;3.97;;;5.50;99.90;;;;;;5057785;28;20532;-44
2022/02/11 05:07:31;;;;;;;8.97;3.97;;;5.50;99.90;;;;;;5057658;28;20454;-49
2022/02/11 05:09:58;;;;;;;6.27;3.63;;;5.50;99.90;;;;;;5057578;28;20458;-46
2022/02/11 05:12:26;;;;;;;9.63;3.83;;;5.50;99.90;;;;;;5057428;28;20513;-46
2022/02/11 05:14:53;;;;;;;15.27;4.27;;;5.50;99.90;;;;;;5057386;28;20456;-43
2022/02/11 05:17:19;;;;;;;21.57;4.47;;;5.50;99.90;;;;;;5058658;28;20569;-43
2022/02/11 05:19:46;;;;;;;5.87;3.17;;;5.60;99.90;;;;;;5060964;28;20914;-48
2022/02/11 05:22:13;;;;;;;6.70;3.50;;;5.60;99.90;;;;;;5058907;28;20517;-49
2022/02/11 05:24:39;;;;;;;4.97;2.73;;;5.60;99.90;;;;;;5057253;28;20448;-45
2022/02/11 05:27:06;;;;;;;5.60;3.30;;;5.50;99.90;;;;;;5058507;28;20789;-47
2022/02/11 05:29:34;;;;;;;8.77;3.60;;;5.50;99.90;;;;;;5058289;28;20467;-46
2022/02/11 05:32:01;;;;;;;8.23;4.97;;;5.40;99.90;;;;;;5057717;28;20978;-46
2022/02/11 05:34:27;;;;;;;11.20;3.60;;;5.40;99.90;;;;;;5057625;28;20543;-45
2022/02/11 05:36:54;;;;;;;9.30;3.43;;;5.40;99.90;;;;;;5057650;28;20517;-45
2022/02/11 05:39:21;;;;;;;9.30;3.80;;;5.40;99.90;;;;;;5057951;28;20452;-46
2022/02/11 05:41:47;;;;;;;8.10;3.23;;;5.40;99.90;;;;;;5057820;28;20572;-44
2022/02/11 05:44:14;;;;;;;10.30;3.83;;;5.40;99.90;;;;;;5057606;28;20448;-48
2022/02/11 05:46:42;;;;;;;5.67;3.50;;;5.40;99.90;;;;;;5058416;28;20495;-44
2022/02/11 05:49:09;;;;;;;7.50;3.50;;;5.50;99.90;;;;;;5059502;28;20448;-43
2022/02/11 05:51:35;;;;;;;4.87;3.40;;;5.50;99.90;;;;;;5058801;28;20456;-44
2022/02/11 05:54:02;;;;;;;3.90;3.43;;;5.50;99.90;;;;;;5059341;28;20471;-40
2022/02/11 05:56:29;;;;;;;6.20;3.30;;;5.60;99.90;;;;;;5058566;28;20483;-43
2022/02/11 05:58:56;;;;;;;8.20;3.67;;;5.60;99.90;;;;;;5058543;28;20479;-42
2022/02/11 06:01:22;;;;;;;5.20;3.57;;;5.50;99.90;;;;;;5057395;28;20455;-44
2022/02/11 06:03:50;;;;;;;9.80;3.50;;;5.50;99.90;;;;;;5057139;28;20452;-41
2022/02/11 06:06:17;;;;;;;4.80;3.00;;;5.50;99.90;;;;;;5057241;28;20448;-46
2022/02/11 06:08:44;;;;;;;4.23;3.13;;;5.50;99.90;;;;;;5057510;28;20444;-44
2022/02/11 06:11:10;;;;;;;6.77;3.20;;;5.50;99.90;;;;;;5056964;28;20521;-43
2022/02/11 06:13:37;;;;;;;7.00;4.53;;;5.60;99.90;;;;;;5056769;28;20471;-46
2022/02/11 06:16:04;;;;;;;5.17;3.37;;;5.60;99.90;;;;;;5057208;28;20510;-42
2022/02/11 06:18:31;;;;;;;3.93;2.50;;;5.60;99.90;;;;;;5057102;28;20443;-43
2022/02/11 06:20:59;;;;;;;9.53;4.13;;;5.60;99.90;;;;;;5056878;28;20469;-45
2022/02/11 06:23:26;;;;;;;8.17;4.17;;;5.60;99.90;;;;;;5057209;28;20440;-45
2022/02/11 06:25:53;;;;;;;6.43;3.23;;;5.50;99.90;;;;;;5056931;28;20457;-43
2022/02/11 06:28:20;;;;;;;5.77;3.50;;;5.50;99.90;;;;;;5057319;28;20456;-41
2022/02/11 06:30:46;;;;;;;8.13;3.90;;;5.50;99.90;;;;;;5057256;28;20448;-46
2022/02/11 06:33:13;;;;;;;7.57;3.67;;;5.50;99.90;;;;;;5057233;28;20476;-46
2022/02/11 06:35:44;;;;;;;6.63;3.57;;;5.50;99.90;;;;;;5057529;28;20447;-44
2022/02/11 06:38:12;;;;;;;7.40;3.50;;;5.50;99.90;;;;;;5056807;28;20500;-45
2022/02/11 06:40:38;;;;;;;9.77;4.07;;;5.60;99.90;;;;;;5056360;28;20783;-47
2022/02/11 06:43:06;;;;;;;11.63;4.13;;;5.60;99.90;;;;;;5056502;28;20541;-47
2022/02/11 06:45:33;;;;;;;5.30;4.00;;;5.50;99.90;;;;;;5056822;28;20475;-44
2022/02/11 06:48:00;;;;;;;6.27;3.30;;;5.50;99.90;;;;;;5057563;28;20444;-44
2022/02/11 06:50:27;;;;;;;4.17;3.17;;;5.50;99.90;;;;;;5058806;28;20457;-47
2022/02/11 06:52:55;;;;;;;6.10;3.53;;;5.50;99.90;;;;;;5057573;28;20878;-46
2022/02/11 06:55:24;;;;;;;9.10;3.90;;;5.60;99.90;;;;;;5056675;28;20511;-44
2022/02/11 06:57:51;;;;;;;11.20;3.73;;;5.60;99.90;;;;;;5056531;28;20567;-43
2022/02/11 07:00:20;;;;;;;9.90;4.37;;;5.60;99.90;;;;;;5056719;28;20482;-43
2022/02/11 07:02:47;;;;;;;7.30;3.30;;;5.70;99.90;;;;;;5056774;28;20465;-43
2022/02/11 07:05:16;;;;;;;13.03;4.93;;;5.70;99.90;;;;;;5056467;28;20432;-43
2022/02/11 07:07:42;;;;;;;4.63;3.20;;;5.70;99.90;;;;;;5056614;28;20443;-46
2022/02/11 07:10:10;;;;;;;9.17;3.23;;;5.70;99.90;;;;;;5056891;28;20456;-42
2022/02/11 07:12:38;;;;;;;8.73;3.37;;;5.70;99.90;;;;;;5056557;28;20458;-46
2022/02/11 07:15:06;;;;;;;9.30;3.50;;;5.80;99.90;;;;;;5056101;28;20467;-40
2022/02/11 07:17:33;;;;;;;11.43;4.00;;;5.80;99.90;;;;;;5056514;28;20519;-44
2022/02/11 07:20:00;;;;;;;8.57;3.90;;;5.90;99.90;;;;;;5056096;28;20444;-47
2022/02/11 07:22:30;;;;;;;6.03;3.93;;;5.90;99.90;;;;;;5058445;28;20471;-43
2022/02/11 07:24:57;;;;;;;6.47;3.70;;;6.00;99.90;;;;;;5060081;28;20788;-42
2022/02/11 07:27:24;;;;;;;5.53;3.13;;;6.10;99.90;;;;;;5059258;28;20443;-41
2022/02/11 07:29:52;;;;;;;6.90;4.07;;;6.10;99.90;;;;;;5059931;28;20842;-43
2022/02/11 07:32:19;;;;;;;5.00;3.20;;;6.10;99.90;;;;;;5059206;28;20459;-47
2022/02/11 07:34:46;;;;;;;8.20;4.40;;;6.20;99.90;;;;;;5059437;28;20534;-44
2022/02/11 07:37:13;;;;;;;9.30;3.80;;;6.10;99.90;;;;;;5059214;28;20499;-43
2022/02/11 07:39:40;;;;;;;9.83;3.70;;;6.20;99.90;;;;;;5059191;28;20543;-43
2022/02/11 07:42:07;;;;;;;6.77;3.93;;;6.10;99.90;;;;;;5059199;28;20456;-40
2022/02/11 07:44:34;;;;;;;15.37;3.70;;;6.10;99.90;;;;;;5058943;28;20472;-40
2022/02/11 07:47:02;;;;;;;6.90;3.40;;;6.10;99.90;;;;;;5064642;28;20452;-43
2022/02/11 07:49:28;;;;;;;6.13;3.80;;;6.10;99.90;;;;;;5062727;28;20510;-48
2022/02/11 07:51:55;;;;;;;8.87;4.17;;;6.10;99.90;;;;;;5072920;28;20474;-43
2022/02/11 07:54:26;;;;;;;8.23;4.63;;;6.20;99.90;;;;;;5061996;28;20452;-41
2022/02/11 07:56:54;;;;;;;3.67;3.10;;;6.20;99.90;;;;;;5061553;28;21003;-45
2022/02/11 07:59:20;;;;;;;7.13;3.47;;;6.20;99.90;;;;;;5061734;28;20908;-46
2022/02/11 08:01:47;;;;;;;9.60;4.97;;;6.30;99.90;;;;;;5061293;28;20451;-40
2022/02/11 08:04:15;;;;;;;8.87;4.20;;;6.20;99.90;;;;;;5061612;28;20449;-42
2022/02/11 08:06:43;;;;;;;6.50;2.97;;;6.20;99.90;;;;;;5060891;28;20464;-43
2022/02/11 08:09:11;;;;;;;5.10;3.57;;;6.20;99.90;;;;;;5067492;28;20447;-48
2022/02/11 08:11:38;;;;;;;5.50;3.40;;;6.10;99.90;;;;;;5076767;28;20468;-43
2022/02/11 08:14:05;;;;;;;6.60;4.60;;;6.10;99.90;;;;;;5062311;28;20475;-43
2022/02/11 08:16:31;;;;;;;3.73;2.40;;;6.00;99.90;;;;;;5069141;28;20463;-42
2022/02/11 08:18:59;;;;;;;8.50;3.30;;;6.00;99.90;;;;;;5081465;28;20457;-46
2022/02/11 08:21:27;;;;;;;6.77;3.60;;;6.00;99.90;;;;;;5071512;28;20532;-44
2022/02/11 08:23:54;;;;;;;6.87;3.27;;;6.00;99.90;;;;;;5060718;28;20499;-45
2022/02/11 08:26:21;;;;;;;7.90;3.70;;;6.50;99.90;;;;;;5060565;28;20452;-43
2022/02/11 08:28:48;;;;;;;7.70;3.60;;;6.50;99.90;;;;;;5060384;28;20458;-42
2022/02/11 08:31:14;;;;;;;2.33;1.60;;;6.40;99.90;;;;;;5066693;28;20436;-40
2022/02/11 08:33:41;;;;;;;6.00;2.97;;;6.30;99.90;;;;;;5076093;28;20534;-36
2022/02/11 08:36:08;;;;;;;3.83;2.40;;;6.10;99.90;;;;;;5075897;28;20443;-35
2022/02/11 08:38:36;;;;;;;4.47;2.60;;;6.00;99.90;;;;;;5075414;28;20525;-40
2022/02/11 08:41:05;;;;;;;4.20;2.53;;;5.90;99.90;;;;;;5075929;28;20467;-41
2022/02/11 08:43:31;;;;;;;3.00;2.60;;;5.80;99.90;;;;;;5076087;28;20441;-40
2022/02/11 08:46:00;;;;;;;5.13;2.70;;;5.80;99.90;;;;;;5076210;28;20451;-33
2022/02/11 08:48:33;;;;;;;12.83;3.47;;;5.70;99.90;;;;;;5076144;28;20471;-40
2022/02/11 08:51:00;;;;;;;10.30;2.40;;;5.70;99.90;;;;;;5076230;28;20473;-38
2022/02/11 08:53:31;;;;;;;2.57;2.00;;;5.70;99.90;;;;;;5075622;28;20455;-39
2022/02/11 08:55:59;;;;;;;5.90;2.67;;;5.70;99.90;;;;;;5083470;28;20486;-41
2022/02/11 08:58:26;;;;;;;2.60;1.93;;;5.70;99.90;;;;;;5095657;28;20459;-40
2022/02/11 09:00:53;;;;;;;8.23;2.00;;;5.60;99.90;;;;;;5096035;28;20506;-42
2022/02/11 09:03:19;;;;;;;3.17;2.20;;;5.50;99.90;;;;;;5095871;28;20451;-38
2022/02/11 09:05:46;;;;;;;7.83;2.30;;;5.50;99.90;;;;;;5095653;28;20873;-37
2022/02/11 09:08:15;;;;;;;3.17;2.20;;;5.50;99.90;;;;;;5095390;28;20727;-42
2022/02/11 09:10:47;;;;;;;6.20;2.70;;;5.40;99.90;;;;;;5095554;28;20494;-39
2022/02/11 09:13:16;;;;;;;5.57;2.80;;;5.40;99.90;;;;;;5095173;28;20461;-48
2022/02/11 09:15:45;;;;;;;6.80;2.83;;;5.40;99.90;;;;;;5094646;28;20481;-53
2022/02/11 09:18:12;;;;;;;7.40;3.07;;;5.40;99.90;;;;;;5094879;28;20474;-55
2022/02/11 09:20:40;;;;;;;3.03;2.67;;;5.40;99.90;;;;;;5094987;28;20483;-53
2022/02/11 09:23:07;;;;;;;9.40;3.30;;;5.50;99.90;;;;;;5095076;28;20475;-55
2022/02/11 09:25:36;;;;;;;5.40;3.47;;;5.50;99.90;;;;;;5078928;28;20511;-52
2022/02/11 09:28:03;;;;;;;3.57;2.53;;;5.50;99.90;;;;;;5075158;28;20777;-53
2022/02/11 09:30:33;;;;;;;3.07;2.77;;;5.40;99.90;;;;;;5074853;28;20485;-55
2022/02/11 09:33:00;;;;;;;10.70;3.03;;;5.50;99.90;;;;;;5075164;28;20439;-59
2022/02/11 09:35:28;;;;;;;4.20;2.87;;;5.40;99.90;;;;;;5085630;28;20439;-59
2022/02/11 09:37:57;;;;;;;4.30;3.27;;;5.60;99.90;;;;;;5096250;28;20494;-65
2022/02/11 09:40:33;;;;;;;4.07;2.87;;;5.80;99.90;;;;;;5096580;28;20498;-58
2022/02/11 09:43:00;;;;;;;4.60;4.20;;;5.80;99.90;;;;;;5096709;28;20432;-62
2022/02/11 09:45:27;;;;;;;5.57;2.70;;;5.90;99.90;;;;;;5095590;28;20535;-46
2022/02/11 09:47:58;;;;;;;5.50;2.63;;;6.10;99.90;;;;;;5096852;28;20442;-57
2022/02/11 09:50:25;;;;;;;4.47;3.50;;;6.10;99.90;;;;;;5096972;28;20422;-63
2022/02/11 09:52:56;;;;;;;3.70;2.60;;;6.10;99.90;;;;;;5096853;28;20466;-59
2022/02/11 09:55:34;;;;;;;4.10;3.10;;;6.10;99.90;;;;;;5096114;28;20473;-59
2022/02/11 09:58:01;;;;;;;5.97;2.50;;;6.40;99.90;;;;;;5096713;28;20483;-52
2022/02/11 10:00:29;;;;;;;4.40;2.77;;;6.50;99.90;;;;;;5096507;28;20432;-60
2022/02/11 10:03:03;;;;;;;11.83;4.50;;;6.50;99.90;;;;;;5096128;28;20431;-63
2022/02/11 10:05:34;;;;;;;5.27;3.13;;;6.40;99.90;;;;;;5096630;28;20442;-55
2022/02/11 10:08:02;;;;;;;6.93;3.90;;;6.40;99.90;;;;;;5095442;28;20474;-54
2022/02/11 10:10:47;;;;;;;7.63;4.77;;;6.40;99.90;;;;;;5095970;28;20452;-60
2022/02/11 10:13:17;;;;;;;6.30;4.17;;;6.60;99.90;;;;;;5095793;28;20425;-55
2022/02/11 10:15:51;;;;;;;5.50;2.97;;;7.20;99.90;;;;;;5096182;28;20456;-54
2022/02/11 10:18:21;;;;;;;16.80;4.47;;;7.60;99.90;;;;;;5096522;28;20526;-59
2022/02/11 10:20:53;;;;;;;4.90;3.57;;;7.60;99.90;;;;;;5095331;28;20542;-51
2022/02/11 10:23:23;;;;;;;11.90;3.63;;;7.50;99.90;;;;;;5095311;28;20529;-49
2022/02/11 10:26:00;;;;;;;6.07;3.00;;;7.50;99.90;;;;;;5094219;28;20500;-56
2022/02/11 10:28:35;;;;;;;5.13;3.13;;;8.10;99.90;;;;;;5093932;28;20429;-56
2022/02/11 10:31:20;;;;;;;13.70;3.50;;;8.30;99.90;;;;;;5094580;28;20432;-47
2022/02/11 10:34:04;;;;;;;8.90;3.20;;;8.50;99.90;;;;;;5094250;28;20422;-54
2022/02/11 10:36:32;;;;;;;4.90;2.87;;;8.90;99.90;;;;;;5094793;28;20436;-58
2022/02/11 10:39:06;;;;;;;5.93;3.67;;;9.00;99.90;;;;;;5095994;28;20482;-50
2022/02/11 10:41:38;;;;;;;3.30;3.00;;;9.10;99.90;;;;;;5095682;28;20497;-54
2022/02/11 10:44:07;;;;;;;5.97;3.30;;;9.10;99.90;;;;;;5096221;28;20462;-54
2022/02/11 10:46:37;;;;;;;7.63;3.40;;;9.10;99.90;;;;;;5095087;28;20446;-56
2022/02/11 10:49:05;;;;;;;7.43;4.43;;;8.90;99.90;;;;;;5095293;28;20458;-48
2022/02/11 10:51:32;;;;;;;6.87;2.67;;;8.90;99.90;;;;;;5095528;28;20446;-49
2022/02/11 10:53:59;;;;;;;4.47;3.00;;;8.70;99.90;;;;;;5095701;28;20473;-53
2022/02/11 10:56:27;;;;;;;6.70;4.30;;;8.40;99.90;;;;;;5096581;28;20464;-53
2022/02/11 10:58:56;;;;;;;6.30;3.90;;;8.10;99.90;;;;;;5099239;28;20485;-48
2022/02/11 11:01:26;;;;;;;4.30;2.20;;;8.00;99.90;;;;;;5099410;28;20448;-56
2022/02/11 11:03:58;;;;;;;3.87;3.00;;;8.20;99.90;;;;;;5099164;28;20430;-51
2022/02/11 11:06:29;;;;;;;4.20;3.10;;;8.30;99.90;;;;;;5099473;28;20466;-52
2022/02/11 11:08:57;;;;;;;4.67;2.97;;;8.40;99.90;;;;;;5099226;28;20421;-53
2022/02/11 11:11:26;;;;;;;3.60;2.60;;;8.10;99.90;;;;;;5098883;28;20428;-48
2022/02/11 11:13:54;;;;;;;6.80;2.23;;;7.70;99.90;;;;;;5098226;28;20479;-50
2022/02/11 11:16:22;;;;;;;8.70;3.20;;;7.40;99.90;;;;;;5097031;28;20445;-56
2022/02/11 11:18:48;;;;;;;3.87;2.70;;;7.30;99.90;;;;;;5097348;28;20554;-54
2022/02/11 11:21:16;;;;;;;8.03;2.90;;;7.30;99.90;;;;;;5097431;28;20462;-52
2022/02/11 11:23:56;;;;;;;4.37;2.60;;;7.20;99.90;;;;;;5097068;28;20441;-55
2022/02/11 11:26:36;;;;;;;2.47;1.90;;;7.20;99.90;;;;;;5097119;28;20526;-56
2022/02/11 11:29:09;;;;;;;4.90;3.00;;;7.40;99.90;;;;;;5097452;28;20465;-52
2022/02/11 11:31:36;;;;;;;6.60;3.13;;;7.50;99.90;;;;;;5097176;28;20445;-53
2022/02/11 11:34:29;;;;;;;6.30;3.20;;;7.40;99.90;;;;;;5097210;28;20448;-54
2022/02/11 11:37:03;;;;;;;6.33;2.00;;;7.30;99.90;;;;;;5097337;28;20462;-57
2022/02/11 11:39:32;;;;;;;3.43;2.80;;;7.30;99.90;;;;;;5097313;28;20459;-59
2022/02/11 11:42:11;;;;;;;4.60;2.70;;;7.30;99.90;;;;;;5096726;28;20479;-63
2022/02/11 11:44:53;;;;;;;3.90;2.90;;;7.20;99.90;;;;;;5096758;28;20643;-62
2022/02/11 11:47:28;;;;;;;9.70;3.90;;;7.00;99.90;;;;;;5095793;28;20466;-60
2022/02/11 11:49:56;;;;;;;5.50;2.50;;;6.80;99.90;;;;;;5077112;28;20557;-55
2022/02/11 11:52:23;;;;;;;3.10;2.40;;;6.70;99.90;;;;;;5078024;28;20452;-58
2022/02/11 11:55:20;;;;;;;3.43;2.20;;;6.50;99.90;;;;;;5077069;28;20447;-60
2022/02/11 11:57:47;;;;;;;3.40;2.47;;;6.50;99.90;;;;;;5077122;28;20481;-59
2022/02/11 12:00:14;;;;;;;4.17;2.90;;;6.50;99.90;;;;;;5077067;28;20512;-63
2022/02/11 12:02:49;;;;;;;8.70;3.50;;;6.60;99.90;;;;;;5078286;28;20490;-60
2022/02/11 12:05:16;;;;;;;5.60;2.30;;;6.70;99.90;;;;;;5076534;28;20428;-58
2022/02/11 12:07:44;;;;;;;6.40;2.57;;;6.80;99.90;;;;;;5076710;28;20471;-55
2022/02/11 12:10:12;;;;;;;4.17;2.63;;;6.90;99.90;;;;;;5075486;28;20459;-56
2022/02/11 12:12:39;;;;;;;15.00;2.70;;;6.90;99.90;;;;;;5075647;28;20458;-59
2022/02/11 12:15:07;;;;;;;7.83;2.80;;;7.10;99.90;;;;;;5076436;28;20479;-59
2022/02/11 12:17:34;;;;;;;4.35;2.30;;;7.00;99.90;;;;;;5076571;28;20501;-60
2022/02/11 12:20:02;;;;;;;5.93;2.10;;;7.00;99.90;;;;;;5076700;28;20474;-62
2022/02/11 12:22:31;;;;;;;3.97;1.90;;;7.00;99.90;;;;;;5076592;28;20460;-57
2022/02/11 12:27:47;;;;;;;2.53;2.33;;;6.90;99.90;;;;;;5075950;28;20501;-58
2022/02/11 12:30:16;;;;;;;4.00;2.50;;;6.80;99.90;;;;;;5076484;28;20506;-55
2022/02/11 12:32:45;;;;;;;6.60;2.63;;;6.90;99.90;;;;;;5076059;28;20450;-55
2022/02/11 12:35:14;;;;;;;3.70;2.27;;;6.90;99.90;;;;;;5076286;28;20459;-59
2022/02/11 12:37:42;;;;;;;5.53;2.50;;;6.90;99.90;;;;;;5076172;28;20764;-64
2022/02/11 12:40:12;;;;;;;7.60;3.10;;;6.90;99.90;;;;;;5076222;28;20450;-58
2022/02/11 12:42:40;;;;;;;6.67;3.07;;;6.90;99.90;;;;;;5075891;28;20902;-55
2022/02/11 12:45:10;;;;;;;10.37;2.70;;;6.90;99.90;;;;;;5076794;28;20512;-60
2022/02/11 12:47:39;;;;;;;3.37;2.27;;;7.00;99.90;;;;;;5076174;28;20466;-55
2022/02/11 12:50:07;;;;;;;3.67;2.90;;;7.00;99.90;;;;;;5075933;28;20459;-58
2022/02/11 12:52:36;;;;;;;8.57;4.93;;;7.10;99.90;;;;;;5076344;28;21107;-58
2022/02/11 12:55:11;;;;;;;6.93;3.00;;;7.10;99.90;;;;;;5075837;28;20479;-59
2022/02/11 12:57:41;;;;;;;4.90;3.50;;;7.10;99.90;;;;;;5076136;28;20442;-61
2022/02/11 13:00:15;;;;;;;4.40;3.10;;;7.00;99.90;;;;;;5075793;28;20487;-62
2022/02/11 13:02:43;;;;;;;2.60;2.10;;;6.90;99.90;;;;;;5076102;28;20579;-58
2022/02/11 13:05:13;;;;;;;5.40;3.93;;;6.90;99.90;;;;;;5075524;28;20456;-57
2022/02/11 13:07:42;;;;;;;8.90;2.90;;;6.80;99.90;;;;;;5075276;28;20490;-58
2022/02/11 13:10:11;;;;;;;6.70;3.07;;;6.80;99.90;;;;;;5075146;28;20450;-59
2022/02/11 13:12:41;;;;;;;4.23;2.97;;;6.80;99.90;;;;;;5075483;28;20448;-55
2022/02/11 13:15:11;;;;;;;6.50;3.00;;;6.70;99.90;;;;;;5075475;28;20466;-62
2022/02/11 13:17:39;;;;;;;3.13;2.70;;;6.70;99.90;;;;;;5075750;28;20506;-58
2022/02/11 13:20:08;;;;;;;3.07;2.37;;;6.60;99.90;;;;;;5074550;28;20496;-57
2022/02/11 13:22:35;;;;;;;3.60;2.70;;;6.50;99.90;;;;;;5075369;28;20428;-60
2022/02/11 13:25:02;;;;;;;3.20;2.27;;;6.50;99.90;;;;;;5075246;28;20502;-56
2022/02/11 13:27:43;;;;;;;3.97;2.87;;;6.50;99.90;;;;;;5074922;28;20467;-56
2022/02/11 13:30:12;;;;;;;4.97;2.60;;;6.60;99.90;;;;;;5075038;28;20956;-63
2022/02/11 13:32:40;;;;;;;3.90;2.63;;;6.60;99.90;;;;;;5075016;28;20459;-58
2022/02/11 13:35:09;;;;;;;3.00;2.57;;;6.60;99.90;;;;;;5076118;28;20785;-59
2022/02/11 13:37:37;;;;;;;4.00;2.73;;;6.60;99.90;;;;;;5075010;28;20450;-55
2022/02/11 13:40:15;;;;;;;3.20;2.90;;;6.60;99.90;;;;;;5074812;28;20962;-59
2022/02/11 13:42:42;;;;;;;4.47;2.27;;;6.70;99.90;;;;;;5075091;28;20449;-59
2022/02/11 13:45:12;;;;;;;2.40;2.20;;;6.70;99.90;;;;;;5075050;28;20450;-60
2022/02/11 13:47:40;;;;;;;3.23;2.90;;;6.70;99.90;;;;;;5074921;28;20474;-55
2022/02/11 13:50:08;;;;;;;2.73;2.43;;;6.80;99.90;;;;;;5074927;28;20923;-53
2022/02/11 13:53:06;;;;;;;3.30;2.97;;;6.90;99.90;;;;;;5074715;28;20442;-58
2022/02/11 13:55:33;;;;;;;3.80;3.10;;;6.90;99.90;;;;;;5074790;28;20542;-58
2022/02/11 13:58:14;;;;;;;2.40;2.10;;;6.70;99.90;;;;;;5074621;28;20509;-53
2022/02/11 14:00:42;;;;;;;7.07;4.07;;;6.70;99.90;;;;;;5075099;28;20460;-60
2022/02/11 14:03:20;;;;;;;3.97;3.00;;;6.70;99.90;;;;;;5074939;28;20505;-58
2022/02/11 14:05:48;;;;;;;5.87;3.50;;;6.70;99.90;;;;;;5074790;28;20454;-51
2022/02/11 14:08:15;;;;;;;3.80;3.03;;;6.80;99.90;;;;;;5074431;28;20431;-58
2022/02/11 14:10:43;;;;;;;3.90;3.10;;;6.70;99.90;;;;;;5074479;28;20517;-53
2022/02/11 14:13:12;;;;;;;4.87;3.10;;;6.70;99.90;;;;;;5074326;28;20533;-59
2022/02/11 14:15:41;;;;;;;4.10;3.03;;;6.70;99.90;;;;;;5074581;28;20973;-59
2022/02/11 14:18:09;;;;;;;4.50;3.70;;;6.70;99.90;;;;;;5074576;28;20469;-62
2022/02/11 14:20:37;;;;;;;4.37;3.20;;;6.60;99.90;;;;;;5074447;28;20490;-60
2022/02/11 14:23:16;;;;;;;5.47;3.43;;;6.60;99.90;;;;;;5074203;28;20459;-61
2022/02/11 14:25:43;;;;;;;3.60;3.30;;;6.50;99.90;;;;;;5074717;28;20770;-56
2022/02/11 14:28:15;;;;;;;6.40;3.03;;;6.50;99.90;;;;;;5074822;28;20486;-62
2022/02/11 14:30:42;;;;;;;3.43;2.70;;;6.50;99.90;;;;;;5076067;28;20470;-58
2022/02/11 14:33:12;;;;;;;4.50;3.67;;;6.50;99.90;;;;;;5078474;28;20466;-57
2022/02/11 14:35:39;;;;;;;4.33;3.30;;;6.50;99.90;;;;;;5078582;28;20453;-59
2022/02/11 14:38:06;;;;;;;5.50;3.50;;;6.70;99.90;;;;;;5078441;28;20446;-57
2022/02/11 14:40:34;;;;;;;4.17;3.73;;;6.70;99.90;;;;;;5077951;28;20984;-56
2022/02/11 14:43:02;;;;;;;4.60;3.97;;;6.60;99.90;;;;;;5078218;28;20458;-52
2022/02/11 14:45:30;;;;;;;4.40;2.90;;;6.60;99.90;;;;;;5078229;28;20470;-60
2022/02/11 14:47:56;;;;;;;4.30;2.70;;;6.60;99.90;;;;;;5078180;28;20496;-59
2022/02/11 14:50:24;;;;;;;5.60;4.57;;;6.50;99.90;;;;;;5077781;28;20848;-56
2022/02/11 14:52:51;;;;;;;4.60;3.43;;;6.60;99.90;;;;;;5078346;28;20536;-59
2022/02/11 14:55:18;;;;;;;3.50;2.67;;;6.70;99.90;;;;;;5078484;28;20451;-61
2022/02/11 14:57:44;;;;;;;4.60;3.50;;;6.70;99.90;;;;;;5078304;28;20804;-58
2022/02/11 15:00:12;;;;;;;3.50;2.83;;;6.80;99.90;;;;;;5077911;28;20490;-58
2022/02/11 15:02:38;;;;;;;3.53;3.23;;;6.80;99.90;;;;;;5077821;28;20517;-53
2022/02/11 15:05:07;;;;;;;3.47;2.37;;;6.90;99.90;;;;;;5077812;28;20476;-57
2022/02/11 15:07:38;;;;;;;3.40;2.73;;;7.00;99.90;;;;;;5077745;28;20450;-59
2022/02/11 15:10:06;;;;;;;3.53;3.20;;;6.90;99.90;;;;;;5077730;28;20750;-58
2022/02/11 15:12:33;;;;;;;4.37;2.90;;;7.00;99.90;;;;;;5077804;28;20780;-58
2022/02/11 15:14:59;;;;;;;6.13;2.90;;;7.10;99.90;;;;;;5077613;28;20488;-57
2022/02/11 15:17:26;;;;;;;4.53;3.53;;;7.10;99.90;;;;;;5077776;28;20448;-56
2022/02/11 15:19:53;;;;;;;3.60;2.90;;;7.00;99.90;;;;;;5077246;28;20989;-60
2022/02/11 15:22:20;;;;;;;3.60;3.00;;;7.00;99.90;;;;;;5078281;28;20465;-60
2022/02/11 15:24:48;;;;;;;5.83;3.63;;;7.00;99.90;;;;;;5077920;28;20440;-60
2022/02/11 15:27:16;;;;;;;6.33;4.20;;;7.00;99.90;;;;;;5077497;28;20500;-55
2022/02/11 15:29:43;;;;;;;5.20;3.97;;;7.00;99.90;;;;;;5077026;28;20459;-56
2022/02/11 15:32:11;;;;;;;5.30;3.07;;;6.80;99.90;;;;;;5077030;28;20450;-58
2022/02/11 15:34:37;;;;;;;5.97;3.93;;;7.60;99.90;;;;;;5077460;28;20450;-58
2022/02/11 15:37:05;;;;;;;6.00;3.93;;;6.60;99.90;;;;;;5077471;28;20452;-56
2022/02/11 15:39:33;;;;;;;6.03;3.93;;;6.50;99.90;;;;;;5077136;28;20499;-59
2022/02/11 15:42:02;;;;;;;5.47;3.67;;;6.50;99.90;;;;;;5076415;28;20503;-57
2022/02/11 15:44:28;;;;;;;4.80;3.60;;;6.50;99.90;;;;;;5076823;28;20447;-54
2022/02/11 15:46:55;;;;;;;6.23;3.60;;;6.50;99.90;;;;;;5076917;28;20459;-56
2022/02/11 15:49:22;;;;;;;5.30;4.40;;;6.40;99.90;;;;;;5076921;28;20447;-58
2022/02/11 15:51:49;;;;;;;6.13;4.40;;;6.40;99.90;;;;;;5077672;28;20440;-56
2022/02/11 15:54:16;;;;;;;5.53;4.00;;;6.50;99.90;;;;;;5077032;28;20506;-62
2022/02/11 15:56:43;;;;;;;5.53;4.13;;;6.40;99.90;;;;;;5077943;28;20442;-58
2022/02/11 15:59:11;;;;;;;3.57;3.03;;;6.40;99.90;;;;;;5077070;28;20502;-58
2022/02/11 16:01:38;;;;;;;16.63;3.60;;;6.40;99.90;;;;;;5076924;28;20459;-55
2022/02/11 16:04:05;;;;;;;6.77;4.00;;;6.40;99.90;;;;;;5076542;28;20444;-58
2022/02/11 16:06:34;;;;;;;7.10;3.80;;;6.30;99.90;;;;;;5076654;28;20470;-56